sensor_id;sensor_type;location;lat;lon;timestamp;temperature;humidity
2749;DHT22;1382;52.142;11.618;2023-07-31T00:00:52;23.00;44.70
2749;DHT22;1382;52.142;11.618;2023-07-31T00:03:19;23.00;44.90
2749;DHT22;1382;52.142;11.618;2023-07-31T00:05:46;23.00;45.10
2749;DHT22;1382;52.142;11.618;2023-07-31T00:08:13;23.00;44.90
2749;DHT22;1382;52.142;11.618;2023-07-31T00:10:40;23.00;44.80
2749;DHT22;1382;52.142;11.618;2023-07-31T00:13:08;23.00;44.70
2749;DHT22;1382;52.142;11.618;2023-07-31T00:15:35;23.00;44.70
2749;DHT22;1382;52.142;11.618;2023-07-31T00:18:01;23.00;45.00
2749;DHT22;1382;52.142;11.618;2023-07-31T00:20:28;23.00;45.10
2749;DHT22;1382;52.142;11.618;2023-07-31T00:22:55;22.90;45.20
2749;DHT22;1382;52.142;11.618;2023-07-31T00:25:22;22.90;45.60
2749;DHT22;1382;52.142;11.618;2023-07-31T00:27:49;22.90;45.80
2749;DHT22;1382;52.142;11.618;2023-07-31T00:30:17;22.90;46.70
2749;DHT22;1382;52.142;11.618;2023-07-31T00:32:44;22.90;46.50
2749;DHT22;1382;52.142;11.618;2023-07-31T00:35:11;22.80;46.30
2749;DHT22;1382;52.142;11.618;2023-07-31T00:37:38;22.80;46.20
2749;DHT22;1382;52.142;11.618;2023-07-31T00:40:05;22.90;46.50
2749;DHT22;1382;52.142;11.618;2023-07-31T00:42:32;22.80;46.40
2749;DHT22;1382;52.142;11.618;2023-07-31T00:44:59;22.80;46.60
2749;DHT22;1382;52.142;11.618;2023-07-31T00:47:28;22.80;46.60
2749;DHT22;1382;52.142;11.618;2023-07-31T00:49:55;22.80;47.20
2749;DHT22;1382;52.142;11.618;2023-07-31T00:52:22;22.80;47.30
2749;DHT22;1382;52.142;11.618;2023-07-31T00:54:49;22.80;47.50
2749;DHT22;1382;52.142;11.618;2023-07-31T00:57:16;22.70;47.30
2749;DHT22;1382;52.142;11.618;2023-07-31T00:59:42;22.70;47.10
2749;DHT22;1382;52.142;11.618;2023-07-31T01:02:09;22.70;47.30
2749;DHT22;1382;52.142;11.618;2023-07-31T01:04:38;22.70;47.00
2749;DHT22;1382;52.142;11.618;2023-07-31T01:07:11;22.70;47.00
2749;DHT22;1382;52.142;11.618;2023-07-31T01:09:44;22.80;47.00
2749;DHT22;1382;52.142;11.618;2023-07-31T01:12:14;22.70;46.80
2749;DHT22;1382;52.142;11.618;2023-07-31T01:14:51;22.70;46.40
2749;DHT22;1382;52.142;11.618;2023-07-31T01:17:18;22.70;46.30
2749;DHT22;1382;52.142;11.618;2023-07-31T01:19:47;22.70;46.00
2749;DHT22;1382;52.142;11.618;2023-07-31T01:22:32;22.70;45.90
2749;DHT22;1382;52.142;11.618;2023-07-31T01:25:16;22.70;46.50
2749;DHT22;1382;52.142;11.618;2023-07-31T01:27:51;22.70;46.60
2749;DHT22;1382;52.142;11.618;2023-07-31T01:30:22;22.60;46.70
2749;DHT22;1382;52.142;11.618;2023-07-31T01:32:53;22.70;46.90
2749;DHT22;1382;52.142;11.618;2023-07-31T01:35:21;22.60;46.60
2749;DHT22;1382;52.142;11.618;2023-07-31T01:37:48;22.60;46.40
2749;DHT22;1382;52.142;11.618;2023-07-31T01:40:15;22.60;46.00
2749;DHT22;1382;52.142;11.618;2023-07-31T01:42:42;22.60;45.90
2749;DHT22;1382;52.142;11.618;2023-07-31T01:45:11;22.60;46.30
2749;DHT22;1382;52.142;11.618;2023-07-31T01:47:38;22.50;45.60
2749;DHT22;1382;52.142;11.618;2023-07-31T01:50:06;22.60;46.10
2749;DHT22;1382;52.142;11.618;2023-07-31T01:52:32;22.50;45.80
2749;DHT22;1382;52.142;11.618;2023-07-31T01:54:59;22.50;46.30
2749;DHT22;1382;52.142;11.618;2023-07-31T01:57:26;22.50;46.20
2749;DHT22;1382;52.142;11.618;2023-07-31T01:59:53;22.50;46.00
2749;DHT22;1382;52.142;11.618;2023-07-31T02:02:22;22.50;46.20
2749;DHT22;1382;52.142;11.618;2023-07-31T02:04:49;22.50;46.00
2749;DHT22;1382;52.142;11.618;2023-07-31T02:07:16;22.40;46.10
2749;DHT22;1382;52.142;11.618;2023-07-31T02:09:42;22.40;46.20
2749;DHT22;1382;52.142;11.618;2023-07-31T02:12:09;22.40;46.40
2749;DHT22;1382;52.142;11.618;2023-07-31T02:14:36;22.40;46.30
2749;DHT22;1382;52.142;11.618;2023-07-31T02:17:03;22.40;46.60
2749;DHT22;1382;52.142;11.618;2023-07-31T02:19:32;22.40;46.80
2749;DHT22;1382;52.142;11.618;2023-07-31T02:21:59;22.30;47.10
2749;DHT22;1382;52.142;11.618;2023-07-31T02:24:26;22.30;47.00
2749;DHT22;1382;52.142;11.618;2023-07-31T02:26:52;22.30;47.30
2749;DHT22;1382;52.142;11.618;2023-07-31T02:29:19;22.30;47.00
2749;DHT22;1382;52.142;11.618;2023-07-31T02:31:46;22.30;47.10
2749;DHT22;1382;52.142;11.618;2023-07-31T02:34:13;22.20;47.40
2749;DHT22;1382;52.142;11.618;2023-07-31T02:36:41;22.20;47.20
2749;DHT22;1382;52.142;11.618;2023-07-31T02:39:08;22.20;47.20
2749;DHT22;1382;52.142;11.618;2023-07-31T02:41:35;22.20;47.20
2749;DHT22;1382;52.142;11.618;2023-07-31T02:44:02;22.20;48.00
2749;DHT22;1382;52.142;11.618;2023-07-31T02:46:29;22.20;47.00
2749;DHT22;1382;52.142;11.618;2023-07-31T02:48:55;22.10;47.30
2749;DHT22;1382;52.142;11.618;2023-07-31T02:51:22;22.10;47.30
2749;DHT22;1382;52.142;11.618;2023-07-31T02:53:51;22.10;47.30
2749;DHT22;1382;52.142;11.618;2023-07-31T02:56:17;22.10;47.30
2749;DHT22;1382;52.142;11.618;2023-07-31T02:58:44;22.10;47.90
2749;DHT22;1382;52.142;11.618;2023-07-31T03:01:11;22.10;48.30
2749;DHT22;1382;52.142;11.618;2023-07-31T03:03:38;22.10;48.40
2749;DHT22;1382;52.142;11.618;2023-07-31T03:06:05;22.10;48.20
2749;DHT22;1382;52.142;11.618;2023-07-31T03:08:32;22.00;48.00
2749;DHT22;1382;52.142;11.618;2023-07-31T03:11:00;22.00;48.10
2749;DHT22;1382;52.142;11.618;2023-07-31T03:13:27;22.00;48.30
2749;DHT22;1382;52.142;11.618;2023-07-31T03:15:54;22.00;48.10
2749;DHT22;1382;52.142;11.618;2023-07-31T03:18:21;22.00;48.90
2749;DHT22;1382;52.142;11.618;2023-07-31T03:20:48;22.00;48.70
2749;DHT22;1382;52.142;11.618;2023-07-31T03:23:15;22.00;49.10
2749;DHT22;1382;52.142;11.618;2023-07-31T03:25:55;21.90;49.20
2749;DHT22;1382;52.142;11.618;2023-07-31T03:28:23;21.90;48.80
2749;DHT22;1382;52.142;11.618;2023-07-31T03:30:51;21.90;49.10
2749;DHT22;1382;52.142;11.618;2023-07-31T03:33:18;21.90;49.60
2749;DHT22;1382;52.142;11.618;2023-07-31T03:35:45;21.90;49.30
2749;DHT22;1382;52.142;11.618;2023-07-31T03:38:12;21.80;49.50
2749;DHT22;1382;52.142;11.618;2023-07-31T03:40:39;21.90;49.40
2749;DHT22;1382;52.142;11.618;2023-07-31T03:43:05;21.80;48.70
2749;DHT22;1382;52.142;11.618;2023-07-31T03:45:34;21.80;49.50
2749;DHT22;1382;52.142;11.618;2023-07-31T03:48:01;21.80;49.60
2749;DHT22;1382;52.142;11.618;2023-07-31T03:50:28;21.80;49.50
2749;DHT22;1382;52.142;11.618;2023-07-31T03:52:55;21.70;49.20
2749;DHT22;1382;52.142;11.618;2023-07-31T03:55:21;21.70;49.50
2749;DHT22;1382;52.142;11.618;2023-07-31T03:57:48;21.90;49.90
2749;DHT22;1382;52.142;11.618;2023-07-31T04:00:15;21.70;49.90
2749;DHT22;1382;52.142;11.618;2023-07-31T04:02:43;21.90;49.70
2749;DHT22;1382;52.142;11.618;2023-07-31T04:05:10;21.80;49.80
2749;DHT22;1382;52.142;11.618;2023-07-31T04:07:37;21.70;50.20
2749;DHT22;1382;52.142;11.618;2023-07-31T04:10:05;21.70;49.70
2749;DHT22;1382;52.142;11.618;2023-07-31T04:12:32;21.70;49.80
2749;DHT22;1382;52.142;11.618;2023-07-31T04:14:59;21.60;49.90
2749;DHT22;1382;52.142;11.618;2023-07-31T04:17:25;21.70;50.70
2749;DHT22;1382;52.142;11.618;2023-07-31T04:19:54;21.70;50.90
2749;DHT22;1382;52.142;11.618;2023-07-31T04:22:21;21.70;50.60
2749;DHT22;1382;52.142;11.618;2023-07-31T04:24:47;21.70;50.00
2749;DHT22;1382;52.142;11.618;2023-07-31T04:27:15;21.70;49.60
2749;DHT22;1382;52.142;11.618;2023-07-31T04:29:41;21.70;50.30
2749;DHT22;1382;52.142;11.618;2023-07-31T04:32:08;21.60;50.30
2749;DHT22;1382;52.142;11.618;2023-07-31T04:34:35;21.60;50.40
2749;DHT22;1382;52.142;11.618;2023-07-31T04:37:03;21.60;51.00
2749;DHT22;1382;52.142;11.618;2023-07-31T04:39:30;21.60;50.40
2749;DHT22;1382;52.142;11.618;2023-07-31T04:41:57;21.60;50.20
2749;DHT22;1382;52.142;11.618;2023-07-31T04:44:24;21.60;50.40
2749;DHT22;1382;52.142;11.618;2023-07-31T04:46:51;21.60;50.60
2749;DHT22;1382;52.142;11.618;2023-07-31T04:49:18;21.60;50.60
2749;DHT22;1382;52.142;11.618;2023-07-31T04:51:44;21.60;49.80
2749;DHT22;1382;52.142;11.618;2023-07-31T04:54:13;21.60;50.00
2749;DHT22;1382;52.142;11.618;2023-07-31T04:56:39;21.60;49.80
2749;DHT22;1382;52.142;11.618;2023-07-31T04:59:07;21.60;49.90
2749;DHT22;1382;52.142;11.618;2023-07-31T05:01:33;21.60;50.10
2749;DHT22;1382;52.142;11.618;2023-07-31T05:04:00;21.60;49.80
2749;DHT22;1382;52.142;11.618;2023-07-31T05:06:27;21.60;49.80
2749;DHT22;1382;52.142;11.618;2023-07-31T05:08:54;21.60;50.00
2749;DHT22;1382;52.142;11.618;2023-07-31T05:11:22;21.60;50.10
2749;DHT22;1382;52.142;11.618;2023-07-31T05:13:49;21.60;50.60
2749;DHT22;1382;52.142;11.618;2023-07-31T05:16:16;21.60;50.00
2749;DHT22;1382;52.142;11.618;2023-07-31T05:18:43;21.60;51.90
2749;DHT22;1382;52.142;11.618;2023-07-31T05:21:09;21.60;50.60
2749;DHT22;1382;52.142;11.618;2023-07-31T05:23:36;21.60;50.60
2749;DHT22;1382;52.142;11.618;2023-07-31T05:26:04;21.70;50.90
2749;DHT22;1382;52.142;11.618;2023-07-31T05:28:34;21.70;51.20
2749;DHT22;1382;52.142;11.618;2023-07-31T05:31:01;21.70;50.20
2749;DHT22;1382;52.142;11.618;2023-07-31T05:33:29;21.70;50.80
2749;DHT22;1382;52.142;11.618;2023-07-31T05:35:56;21.70;50.90
2749;DHT22;1382;52.142;11.618;2023-07-31T05:38:23;21.70;50.70
2749;DHT22;1382;52.142;11.618;2023-07-31T05:40:50;21.70;50.20
2749;DHT22;1382;52.142;11.618;2023-07-31T05:43:17;21.80;50.80
2749;DHT22;1382;52.142;11.618;2023-07-31T05:45:45;21.70;51.30
2749;DHT22;1382;52.142;11.618;2023-07-31T05:48:12;21.70;50.70
2749;DHT22;1382;52.142;11.618;2023-07-31T05:50:39;21.70;51.10
2749;DHT22;1382;52.142;11.618;2023-07-31T05:53:06;21.70;51.00
2749;DHT22;1382;52.142;11.618;2023-07-31T05:55:33;21.70;50.90
2749;DHT22;1382;52.142;11.618;2023-07-31T05:57:59;21.70;50.60
2749;DHT22;1382;52.142;11.618;2023-07-31T06:00:27;21.70;51.50
2749;DHT22;1382;52.142;11.618;2023-07-31T06:02:55;21.80;52.00
2749;DHT22;1382;52.142;11.618;2023-07-31T06:05:22;21.80;52.70
2749;DHT22;1382;52.142;11.618;2023-07-31T06:07:49;21.70;52.20
2749;DHT22;1382;52.142;11.618;2023-07-31T06:10:16;21.80;52.00
2749;DHT22;1382;52.142;11.618;2023-07-31T06:12:42;21.80;52.40
2749;DHT22;1382;52.142;11.618;2023-07-31T06:15:10;21.80;52.70
2749;DHT22;1382;52.142;11.618;2023-07-31T06:17:36;21.80;51.90
2749;DHT22;1382;52.142;11.618;2023-07-31T06:20:06;21.80;51.70
2749;DHT22;1382;52.142;11.618;2023-07-31T06:22:33;21.80;52.30
2749;DHT22;1382;52.142;11.618;2023-07-31T06:25:00;21.80;52.70
2749;DHT22;1382;52.142;11.618;2023-07-31T06:27:27;21.80;52.10
2749;DHT22;1382;52.142;11.618;2023-07-31T06:29:54;21.80;51.80
2749;DHT22;1382;52.142;11.618;2023-07-31T06:32:21;21.80;51.40
2749;DHT22;1382;52.142;11.618;2023-07-31T06:34:48;22.00;52.50
2749;DHT22;1382;52.142;11.618;2023-07-31T06:37:16;21.80;51.70
2749;DHT22;1382;52.142;11.618;2023-07-31T06:39:43;21.80;52.40
2749;DHT22;1382;52.142;11.618;2023-07-31T06:42:10;21.80;51.60
2749;DHT22;1382;52.142;11.618;2023-07-31T06:44:37;21.80;51.80
2749;DHT22;1382;52.142;11.618;2023-07-31T06:47:04;21.70;51.50
2749;DHT22;1382;52.142;11.618;2023-07-31T06:49:31;21.80;52.50
2749;DHT22;1382;52.142;11.618;2023-07-31T06:51:58;21.80;51.20
2749;DHT22;1382;52.142;11.618;2023-07-31T06:54:26;21.80;51.60
2749;DHT22;1382;52.142;11.618;2023-07-31T06:56:53;21.70;51.10
2749;DHT22;1382;52.142;11.618;2023-07-31T06:59:20;21.70;50.80
2749;DHT22;1382;52.142;11.618;2023-07-31T07:01:47;21.70;51.00
2749;DHT22;1382;52.142;11.618;2023-07-31T07:04:13;21.70;50.60
2749;DHT22;1382;52.142;11.618;2023-07-31T07:06:40;21.70;50.80
2749;DHT22;1382;52.142;11.618;2023-07-31T07:09:08;21.70;51.20
2749;DHT22;1382;52.142;11.618;2023-07-31T07:11:36;21.70;50.90
2749;DHT22;1382;52.142;11.618;2023-07-31T07:14:03;21.70;51.30
2749;DHT22;1382;52.142;11.618;2023-07-31T07:16:30;21.70;50.80
2749;DHT22;1382;52.142;11.618;2023-07-31T07:18:57;21.70;51.20
2749;DHT22;1382;52.142;11.618;2023-07-31T07:21:31;21.70;50.60
2749;DHT22;1382;52.142;11.618;2023-07-31T07:23:58;21.70;50.50
2749;DHT22;1382;52.142;11.618;2023-07-31T07:26:24;21.70;51.10
2749;DHT22;1382;52.142;11.618;2023-07-31T07:28:53;21.70;50.80
2749;DHT22;1382;52.142;11.618;2023-07-31T07:31:19;21.70;50.80
2749;DHT22;1382;52.142;11.618;2023-07-31T07:33:46;21.70;50.90
2749;DHT22;1382;52.142;11.618;2023-07-31T07:36:13;21.70;50.90
2749;DHT22;1382;52.142;11.618;2023-07-31T07:38:40;21.70;50.50
2749;DHT22;1382;52.142;11.618;2023-07-31T07:41:07;21.80;50.30
2749;DHT22;1382;52.142;11.618;2023-07-31T07:43:33;21.80;50.00
2749;DHT22;1382;52.142;11.618;2023-07-31T07:46:01;21.80;51.10
2749;DHT22;1382;52.142;11.618;2023-07-31T07:48:28;21.90;50.70
2749;DHT22;1382;52.142;11.618;2023-07-31T07:50:55;21.90;50.60
2749;DHT22;1382;52.142;11.618;2023-07-31T07:53:22;21.90;50.90
2749;DHT22;1382;52.142;11.618;2023-07-31T07:55:49;21.90;50.40
2749;DHT22;1382;52.142;11.618;2023-07-31T07:58:15;21.90;50.80
2749;DHT22;1382;52.142;11.618;2023-07-31T08:00:48;21.90;50.40
2749;DHT22;1382;52.142;11.618;2023-07-31T08:03:16;22.00;51.50
2749;DHT22;1382;52.142;11.618;2023-07-31T08:05:43;22.00;50.90
2749;DHT22;1382;52.142;11.618;2023-07-31T08:08:14;22.00;51.80
2749;DHT22;1382;52.142;11.618;2023-07-31T08:10:41;22.10;51.60
2749;DHT22;1382;52.142;11.618;2023-07-31T08:13:09;22.10;51.60
2749;DHT22;1382;52.142;11.618;2023-07-31T08:15:36;22.10;51.10
2749;DHT22;1382;52.142;11.618;2023-07-31T08:18:02;22.10;51.70
2749;DHT22;1382;52.142;11.618;2023-07-31T08:20:31;22.20;51.90
2749;DHT22;1382;52.142;11.618;2023-07-31T08:22:57;22.20;52.80
2749;DHT22;1382;52.142;11.618;2023-07-31T08:25:24;22.30;52.00
2749;DHT22;1382;52.142;11.618;2023-07-31T08:27:51;22.30;52.50
2749;DHT22;1382;52.142;11.618;2023-07-31T08:30:18;22.40;53.30
2749;DHT22;1382;52.142;11.618;2023-07-31T08:32:48;22.50;53.40
2749;DHT22;1382;52.142;11.618;2023-07-31T08:35:15;22.50;53.40
2749;DHT22;1382;52.142;11.618;2023-07-31T08:37:43;22.60;53.50
2749;DHT22;1382;52.142;11.618;2023-07-31T08:40:10;22.70;53.90
2749;DHT22;1382;52.142;11.618;2023-07-31T08:42:43;22.70;53.40
2749;DHT22;1382;52.142;11.618;2023-07-31T08:45:14;22.90;54.40
2749;DHT22;1382;52.142;11.618;2023-07-31T08:47:41;22.90;54.10
2749;DHT22;1382;52.142;11.618;2023-07-31T08:50:12;23.00;53.50
2749;DHT22;1382;52.142;11.618;2023-07-31T08:52:40;23.00;54.50
2749;DHT22;1382;52.142;11.618;2023-07-31T08:55:09;23.10;54.10
2749;DHT22;1382;52.142;11.618;2023-07-31T08:57:37;23.20;53.50
2749;DHT22;1382;52.142;11.618;2023-07-31T09:00:05;23.30;53.30
2749;DHT22;1382;52.142;11.618;2023-07-31T09:02:38;23.30;53.30
2749;DHT22;1382;52.142;11.618;2023-07-31T09:05:06;23.40;53.60
2749;DHT22;1382;52.142;11.618;2023-07-31T09:07:34;23.50;53.70
2749;DHT22;1382;52.142;11.618;2023-07-31T09:10:01;23.60;52.70
2749;DHT22;1382;52.142;11.618;2023-07-31T09:12:29;23.60;53.10
2749;DHT22;1382;52.142;11.618;2023-07-31T09:14:57;23.70;53.00
2749;DHT22;1382;52.142;11.618;2023-07-31T09:17:30;23.80;52.40
2749;DHT22;1382;52.142;11.618;2023-07-31T09:19:57;23.90;52.50
2749;DHT22;1382;52.142;11.618;2023-07-31T09:22:32;23.90;52.50
2749;DHT22;1382;52.142;11.618;2023-07-31T09:25:15;24.00;51.70
2749;DHT22;1382;52.142;11.618;2023-07-31T09:27:53;24.10;51.60
2749;DHT22;1382;52.142;11.618;2023-07-31T09:30:21;24.10;50.90
2749;DHT22;1382;52.142;11.618;2023-07-31T09:32:49;24.10;50.50
2749;DHT22;1382;52.142;11.618;2023-07-31T09:35:19;24.10;50.60
2749;DHT22;1382;52.142;11.618;2023-07-31T09:37:51;24.10;50.20
2749;DHT22;1382;52.142;11.618;2023-07-31T09:40:28;24.10;49.90
2749;DHT22;1382;52.142;11.618;2023-07-31T09:43:00;24.20;50.10
2749;DHT22;1382;52.142;11.618;2023-07-31T09:45:28;24.20;49.90
2749;DHT22;1382;52.142;11.618;2023-07-31T09:48:08;24.20;49.70
2749;DHT22;1382;52.142;11.618;2023-07-31T09:50:36;24.20;49.40
2749;DHT22;1382;52.142;11.618;2023-07-31T09:53:04;24.20;50.40
2749;DHT22;1382;52.142;11.618;2023-07-31T09:55:31;24.20;50.30
2749;DHT22;1382;52.142;11.618;2023-07-31T09:58:00;24.20;49.30
2749;DHT22;1382;52.142;11.618;2023-07-31T10:00:29;24.20;49.80
2749;DHT22;1382;52.142;11.618;2023-07-31T10:02:59;24.20;49.60
2749;DHT22;1382;52.142;11.618;2023-07-31T10:05:29;24.30;50.70
2749;DHT22;1382;52.142;11.618;2023-07-31T10:07:57;24.20;50.00
2749;DHT22;1382;52.142;11.618;2023-07-31T10:10:25;24.30;49.40
2749;DHT22;1382;52.142;11.618;2023-07-31T10:12:52;24.20;49.30
2749;DHT22;1382;52.142;11.618;2023-07-31T10:15:21;24.30;50.10
2749;DHT22;1382;52.142;11.618;2023-07-31T10:17:49;24.30;49.90
2749;DHT22;1382;52.142;11.618;2023-07-31T10:20:16;24.30;49.30
2749;DHT22;1382;52.142;11.618;2023-07-31T10:22:44;24.30;49.30
2749;DHT22;1382;52.142;11.618;2023-07-31T10:25:10;24.40;49.50
2749;DHT22;1382;52.142;11.618;2023-07-31T10:27:39;24.50;50.10
2749;DHT22;1382;52.142;11.618;2023-07-31T10:30:07;24.50;50.20
2749;DHT22;1382;52.142;11.618;2023-07-31T10:32:38;24.60;50.60
2749;DHT22;1382;52.142;11.618;2023-07-31T10:35:07;24.50;49.40
2749;DHT22;1382;52.142;11.618;2023-07-31T10:37:37;24.60;49.10
2749;DHT22;1382;52.142;11.618;2023-07-31T10:40:06;24.70;49.30
2749;DHT22;1382;52.142;11.618;2023-07-31T10:42:35;24.80;49.50
2749;DHT22;1382;52.142;11.618;2023-07-31T10:45:04;24.80;49.10
2749;DHT22;1382;52.142;11.618;2023-07-31T10:47:31;24.80;49.10
2749;DHT22;1382;52.142;11.618;2023-07-31T10:50:16;24.90;49.10
2749;DHT22;1382;52.142;11.618;2023-07-31T10:52:46;24.90;48.70
2749;DHT22;1382;52.142;11.618;2023-07-31T10:55:15;24.90;49.20
2749;DHT22;1382;52.142;11.618;2023-07-31T10:57:44;24.90;49.30
2749;DHT22;1382;52.142;11.618;2023-07-31T11:00:22;24.90;49.50
2749;DHT22;1382;52.142;11.618;2023-07-31T11:02:58;24.90;49.30
2749;DHT22;1382;52.142;11.618;2023-07-31T11:05:50;24.90;49.30
2749;DHT22;1382;52.142;11.618;2023-07-31T11:08:19;24.90;49.00
2749;DHT22;1382;52.142;11.618;2023-07-31T11:10:47;24.90;49.30
2749;DHT22;1382;52.142;11.618;2023-07-31T11:13:14;24.80;48.80
2749;DHT22;1382;52.142;11.618;2023-07-31T11:15:41;24.90;48.90
2749;DHT22;1382;52.142;11.618;2023-07-31T11:18:09;24.90;49.10
2749;DHT22;1382;52.142;11.618;2023-07-31T11:20:36;24.90;49.50
2749;DHT22;1382;52.142;11.618;2023-07-31T11:23:07;25.00;49.70
2749;DHT22;1382;52.142;11.618;2023-07-31T11:25:34;25.10;49.20
2749;DHT22;1382;52.142;11.618;2023-07-31T11:28:05;25.00;49.50
2749;DHT22;1382;52.142;11.618;2023-07-31T11:30:32;25.10;49.50
2749;DHT22;1382;52.142;11.618;2023-07-31T11:33:01;25.10;49.00
2749;DHT22;1382;52.142;11.618;2023-07-31T11:35:29;25.10;49.70
2749;DHT22;1382;52.142;11.618;2023-07-31T11:37:56;25.20;48.90
2749;DHT22;1382;52.142;11.618;2023-07-31T11:40:24;25.20;49.30
2749;DHT22;1382;52.142;11.618;2023-07-31T11:42:58;25.20;48.90
2749;DHT22;1382;52.142;11.618;2023-07-31T11:45:26;25.30;49.30
2749;DHT22;1382;52.142;11.618;2023-07-31T11:47:54;25.30;49.10
2749;DHT22;1382;52.142;11.618;2023-07-31T11:50:22;25.40;48.90
2749;DHT22;1382;52.142;11.618;2023-07-31T11:52:51;25.50;49.00
2749;DHT22;1382;52.142;11.618;2023-07-31T11:55:19;25.50;49.00
2749;DHT22;1382;52.142;11.618;2023-07-31T11:57:48;25.50;48.70
2749;DHT22;1382;52.142;11.618;2023-07-31T12:00:16;25.60;48.70
2749;DHT22;1382;52.142;11.618;2023-07-31T12:02:43;25.60;48.60
2749;DHT22;1382;52.142;11.618;2023-07-31T12:05:11;25.60;48.70
2749;DHT22;1382;52.142;11.618;2023-07-31T12:07:48;25.70;48.50
2749;DHT22;1382;52.142;11.618;2023-07-31T12:10:26;25.80;48.70
2749;DHT22;1382;52.142;11.618;2023-07-31T12:13:02;25.70;48.40
2749;DHT22;1382;52.142;11.618;2023-07-31T12:15:41;25.70;48.20
2749;DHT22;1382;52.142;11.618;2023-07-31T12:18:09;25.70;48.00
2749;DHT22;1382;52.142;11.618;2023-07-31T12:20:41;25.80;48.80
2749;DHT22;1382;52.142;11.618;2023-07-31T12:23:13;26.00;48.70
2749;DHT22;1382;52.142;11.618;2023-07-31T12:25:40;25.80;48.50
2749;DHT22;1382;52.142;11.618;2023-07-31T12:28:09;25.90;48.40
2749;DHT22;1382;52.142;11.618;2023-07-31T12:30:36;25.90;48.20
2749;DHT22;1382;52.142;11.618;2023-07-31T12:33:03;25.90;48.20
2749;DHT22;1382;52.142;11.618;2023-07-31T12:35:35;26.00;48.20
2749;DHT22;1382;52.142;11.618;2023-07-31T12:38:02;26.10;48.20
2749;DHT22;1382;52.142;11.618;2023-07-31T12:40:29;26.10;48.00
2749;DHT22;1382;52.142;11.618;2023-07-31T12:43:01;26.20;47.60
2749;DHT22;1382;52.142;11.618;2023-07-31T12:45:29;26.20;47.10
2749;DHT22;1382;52.142;11.618;2023-07-31T12:47:56;26.30;47.30
2749;DHT22;1382;52.142;11.618;2023-07-31T12:50:23;26.30;47.20
2749;DHT22;1382;52.142;11.618;2023-07-31T12:52:50;26.30;47.10
2749;DHT22;1382;52.142;11.618;2023-07-31T12:55:17;26.40;46.70
2749;DHT22;1382;52.142;11.618;2023-07-31T12:57:44;26.40;46.70
2749;DHT22;1382;52.142;11.618;2023-07-31T13:00:12;26.40;46.70
2749;DHT22;1382;52.142;11.618;2023-07-31T13:02:41;26.40;46.60
2749;DHT22;1382;52.142;11.618;2023-07-31T13:05:08;26.40;46.70
2749;DHT22;1382;52.142;11.618;2023-07-31T13:07:35;26.40;46.70
2749;DHT22;1382;52.142;11.618;2023-07-31T13:10:02;26.30;46.50
2749;DHT22;1382;52.142;11.618;2023-07-31T13:12:29;26.30;46.40
2749;DHT22;1382;52.142;11.618;2023-07-31T13:14:56;26.40;46.60
2749;DHT22;1382;52.142;11.618;2023-07-31T13:17:22;26.40;46.60
2749;DHT22;1382;52.142;11.618;2023-07-31T13:19:51;26.40;46.70
2749;DHT22;1382;52.142;11.618;2023-07-31T13:22:18;26.40;46.80
2749;DHT22;1382;52.142;11.618;2023-07-31T13:24:45;26.40;47.10
2749;DHT22;1382;52.142;11.618;2023-07-31T13:27:12;26.40;47.00
2749;DHT22;1382;52.142;11.618;2023-07-31T13:29:39;26.30;47.10
2749;DHT22;1382;52.142;11.618;2023-07-31T13:32:06;26.40;46.70
2749;DHT22;1382;52.142;11.618;2023-07-31T13:34:32;26.40;47.30
2749;DHT22;1382;52.142;11.618;2023-07-31T13:37:00;26.40;46.80
2749;DHT22;1382;52.142;11.618;2023-07-31T13:39:27;26.50;46.80
2749;DHT22;1382;52.142;11.618;2023-07-31T13:41:54;26.50;46.90
2749;DHT22;1382;52.142;11.618;2023-07-31T13:44:21;26.60;47.10
2749;DHT22;1382;52.142;11.618;2023-07-31T13:46:48;26.70;46.70
2749;DHT22;1382;52.142;11.618;2023-07-31T13:49:15;26.70;46.10
2749;DHT22;1382;52.142;11.618;2023-07-31T13:51:42;26.70;46.10
2749;DHT22;1382;52.142;11.618;2023-07-31T13:54:10;26.70;46.10
2749;DHT22;1382;52.142;11.618;2023-07-31T13:56:37;26.80;46.00
2749;DHT22;1382;52.142;11.618;2023-07-31T13:59:05;26.80;46.00
2749;DHT22;1382;52.142;11.618;2023-07-31T14:01:31;26.80;45.80
2749;DHT22;1382;52.142;11.618;2023-07-31T14:03:58;26.80;45.80
2749;DHT22;1382;52.142;11.618;2023-07-31T14:06:25;26.80;45.60
2749;DHT22;1382;52.142;11.618;2023-07-31T14:08:52;26.80;45.70
2749;DHT22;1382;52.142;11.618;2023-07-31T14:11:21;26.80;45.60
2749;DHT22;1382;52.142;11.618;2023-07-31T14:13:48;26.80;45.80
2749;DHT22;1382;52.142;11.618;2023-07-31T14:16:14;26.80;45.80
2749;DHT22;1382;52.142;11.618;2023-07-31T14:18:41;26.80;45.80
2749;DHT22;1382;52.142;11.618;2023-07-31T14:21:09;26.90;45.90
2749;DHT22;1382;52.142;11.618;2023-07-31T14:23:35;26.80;45.90
2749;DHT22;1382;52.142;11.618;2023-07-31T14:26:02;26.80;45.90
2749;DHT22;1382;52.142;11.618;2023-07-31T14:28:31;26.80;46.00
2749;DHT22;1382;52.142;11.618;2023-07-31T14:30:58;26.80;46.10
2749;DHT22;1382;52.142;11.618;2023-07-31T14:33:25;26.80;46.00
2749;DHT22;1382;52.142;11.618;2023-07-31T14:35:52;26.80;46.10
2749;DHT22;1382;52.142;11.618;2023-07-31T14:38:19;26.80;46.30
2749;DHT22;1382;52.142;11.618;2023-07-31T14:40:46;26.80;46.10
2749;DHT22;1382;52.142;11.618;2023-07-31T14:43:13;26.80;46.20
2749;DHT22;1382;52.142;11.618;2023-07-31T14:45:41;26.80;46.10
2749;DHT22;1382;52.142;11.618;2023-07-31T14:48:08;26.80;46.10
2749;DHT22;1382;52.142;11.618;2023-07-31T14:50:35;26.80;46.20
2749;DHT22;1382;52.142;11.618;2023-07-31T14:53:02;26.80;46.10
2749;DHT22;1382;52.142;11.618;2023-07-31T14:55:29;26.80;46.00
2749;DHT22;1382;52.142;11.618;2023-07-31T14:57:55;26.80;46.00
2749;DHT22;1382;52.142;11.618;2023-07-31T15:00:22;26.80;46.10
2749;DHT22;1382;52.142;11.618;2023-07-31T15:02:50;26.80;46.30
2749;DHT22;1382;52.142;11.618;2023-07-31T15:05:17;26.80;46.40
2749;DHT22;1382;52.142;11.618;2023-07-31T15:07:44;26.70;46.40
2749;DHT22;1382;52.142;11.618;2023-07-31T15:10:11;26.70;46.40
2749;DHT22;1382;52.142;11.618;2023-07-31T15:12:40;26.70;46.90
2749;DHT22;1382;52.142;11.618;2023-07-31T15:15:07;26.70;47.10
2749;DHT22;1382;52.142;11.618;2023-07-31T15:17:34;26.70;47.00
2749;DHT22;1382;52.142;11.618;2023-07-31T15:20:04;26.70;47.00
2749;DHT22;1382;52.142;11.618;2023-07-31T15:22:31;26.60;46.90
2749;DHT22;1382;52.142;11.618;2023-07-31T15:24:58;26.60;47.10
2749;DHT22;1382;52.142;11.618;2023-07-31T15:27:24;26.60;47.80
2749;DHT22;1382;52.142;11.618;2023-07-31T15:29:51;26.60;48.00
2749;DHT22;1382;52.142;11.618;2023-07-31T15:32:19;26.60;48.50
2749;DHT22;1382;52.142;11.618;2023-07-31T15:34:45;26.60;48.80
2749;DHT22;1382;52.142;11.618;2023-07-31T15:37:14;26.60;48.70
2749;DHT22;1382;52.142;11.618;2023-07-31T15:39:40;26.60;48.60
2749;DHT22;1382;52.142;11.618;2023-07-31T15:42:07;26.50;48.60
2749;DHT22;1382;52.142;11.618;2023-07-31T15:44:34;26.50;48.20
2749;DHT22;1382;52.142;11.618;2023-07-31T15:47:01;26.50;48.20
2749;DHT22;1382;52.142;11.618;2023-07-31T15:49:27;26.50;48.30